Time;durP1;ratioP1;P1;durP2;ratioP2;P2;SDS_P1;SDS_P2;PMS_P1;PMS_P2;Temp;Humidity;BMP_temperature;BMP_pressure;BME280_temperature;BME280_humidity;BME280_pressure;Samples;Min_cycle;Max_cycle;Signal;HPM_P1;HPM_P2
2023/05/04 00:02:18;;;;;;;6.13;2.90;;;9.40;96.40;;;;;;5050377;28;20429;-72
2023/05/04 00:05:05;;;;;;;9.07;3.73;;;9.50;96.60;;;;;;5052240;28;20572;-72
2023/05/04 00:07:50;;;;;;;13.10;2.67;;;9.60;96.10;;;;;;5047776;28;20501;-72
2023/05/04 00:10:36;;;;;;;5.10;3.40;;;9.60;96.20;;;;;;5050645;28;20479;-72
2023/05/04 00:13:23;;;;;;;5.20;2.60;;;9.70;96.40;;;;;;5052053;28;20500;-73
2023/05/04 00:16:08;;;;;;;6.83;3.20;;;9.90;95.50;;;;;;5048256;28;20450;-71
2023/05/04 00:18:54;;;;;;;3.27;2.83;;;9.80;95.40;;;;;;5056751;28;20788;-73
2023/05/04 00:21:39;;;;;;;7.80;3.30;;;9.80;95.10;;;;;;5043614;28;20443;-73
2023/05/04 00:24:24;;;;;;;3.80;3.00;;;9.80;95.10;;;;;;5052690;28;21011;-72
2023/05/04 00:27:10;;;;;;;3.53;3.10;;;9.90;95.00;;;;;;5052262;28;20491;-72
2023/05/04 00:29:57;;;;;;;5.97;2.60;;;9.90;94.30;;;;;;5049795;28;20479;-72
2023/05/04 00:32:42;;;;;;;6.10;2.60;;;10.00;94.20;;;;;;5050326;28;20460;-72
2023/05/04 00:35:28;;;;;;;4.57;2.47;;;9.80;94.40;;;;;;5047962;28;20429;-73
2023/05/04 00:38:15;;;;;;;5.93;3.10;;;9.90;94.60;;;;;;5050741;28;20677;-73
2023/05/04 00:41:00;;;;;;;3.97;2.70;;;9.80;95.00;;;;;;5046960;28;20507;-76
2023/05/04 00:43:47;;;;;;;3.20;2.77;;;9.80;94.70;;;;;;5053052;28;20574;-72
2023/05/04 00:46:34;;;;;;;4.00;2.47;;;9.80;94.80;;;;;;5048560;28;21007;-72
2023/05/04 00:49:20;;;;;;;4.60;2.90;;;9.80;94.50;;;;;;5051325;28;20487;-72
2023/05/04 00:52:06;;;;;;;4.70;2.50;;;9.70;94.50;;;;;;5050811;28;20462;-72
2023/05/04 00:54:52;;;;;;;5.70;2.93;;;9.70;95.00;;;;;;5046792;28;20785;-72
2023/05/04 00:57:39;;;;;;;9.07;2.73;;;9.60;95.00;;;;;;5049261;28;20459;-72
2023/05/04 01:00:24;;;;;;;4.70;2.73;;;9.50;95.60;;;;;;5051177;28;20964;-72
2023/05/04 01:03:11;;;;;;;5.73;2.77;;;9.30;96.10;;;;;;5051932;28;20443;-73
2023/05/04 01:06:07;;;;;;;9.50;2.83;;;9.20;97.40;;;;;;5058116;28;20451;-72
2023/05/04 01:08:59;;;;;;;4.60;2.80;;;9.20;98.40;;;;;;5048734;28;20561;-72
2023/05/04 01:11:51;;;;;;;5.17;3.20;;;9.30;98.10;;;;;;5050326;28;20434;-73
2023/05/04 01:14:38;;;;;;;2.93;2.40;;;9.40;97.70;;;;;;5046844;28;20442;-73
2023/05/04 01:17:23;;;;;;;5.90;3.30;;;9.40;96.90;;;;;;5054629;28;20919;-73
2023/05/04 01:20:11;;;;;;;5.97;3.97;;;9.40;97.60;;;;;;5047060;28;20950;-73
2023/05/04 01:22:57;;;;;;;5.60;3.03;;;9.20;97.40;;;;;;5051751;28;20408;-73
2023/05/04 01:25:47;;;;;;;4.67;3.40;;;9.20;98.00;;;;;;5045964;28;20448;-72
2023/05/04 01:28:37;;;;;;;6.00;2.90;;;9.30;97.20;;;;;;5055208;28;20458;-73
2023/05/04 01:31:26;;;;;;;5.07;2.80;;;9.20;97.80;;;;;;5049668;28;20450;-72
2023/05/04 01:34:12;;;;;;;4.67;3.23;;;9.10;98.10;;;;;;5048222;28;20444;-73
2023/05/04 01:36:57;;;;;;;6.90;3.13;;;9.30;97.60;;;;;;5048359;28;20444;-76
2023/05/04 01:39:45;;;;;;;7.53;3.17;;;9.10;97.70;;;;;;5050650;28;20822;-72
2023/05/04 01:42:30;;;;;;;3.87;2.80;;;9.20;98.30;;;;;;5047512;28;20473;-72
2023/05/04 01:45:16;;;;;;;5.60;3.33;;;9.30;97.70;;;;;;5050855;28;20446;-72
2023/05/04 01:48:01;;;;;;;3.70;3.20;;;9.20;98.10;;;;;;5055835;28;20467;-72
2023/05/04 01:50:46;;;;;;;7.30;3.53;;;9.20;97.90;;;;;;5046135;28;21119;-72
2023/05/04 01:53:32;;;;;;;5.97;3.10;;;9.20;98.20;;;;;;5048398;28;20806;-72
2023/05/04 01:56:19;;;;;;;4.20;3.60;;;9.30;97.90;;;;;;5051250;28;20873;-72
2023/05/04 01:59:04;;;;;;;4.27;3.60;;;9.10;98.10;;;;;;5050731;28;20480;-72
2023/05/04 02:01:50;;;;;;;4.57;2.83;;;9.00;98.80;;;;;;5044056;28;20536;-72
2023/05/04 02:04:35;;;;;;;7.67;3.87;;;8.90;99.30;;;;;;5048302;28;20533;-72
2023/05/04 02:07:21;;;;;;;6.73;3.40;;;9.00;99.90;;;;;;5048540;28;20445;-72
2023/05/04 02:10:08;;;;;;;5.30;3.33;;;9.00;99.90;;;;;;5040254;28;20530;-72
2023/05/04 02:12:55;;;;;;;7.83;4.23;;;9.10;99.80;;;;;;5047573;28;20820;-73
2023/05/04 02:15:40;;;;;;;4.13;3.37;;;9.00;99.70;;;;;;5051346;28;20439;-72
2023/05/04 02:18:25;;;;;;;4.80;3.50;;;8.90;99.80;;;;;;5051183;28;20422;-73
2023/05/04 02:21:11;;;;;;;3.77;3.20;;;9.00;99.90;;;;;;5053764;28;20430;-72
2023/05/04 02:23:56;;;;;;;4.60;3.97;;;9.00;99.90;;;;;;5055335;28;20809;-72
2023/05/04 02:26:42;;;;;;;4.93;4.27;;;8.90;99.90;;;;;;5047584;28;20800;-72
2023/05/04 02:29:28;;;;;;;6.23;3.80;;;8.90;99.90;;;;;;5041758;28;20599;-72
2023/05/04 02:32:14;;;;;;;6.37;3.80;;;8.90;99.90;;;;;;5053765;28;20417;-74
2023/05/04 02:34:59;;;;;;;5.37;3.43;;;8.90;99.90;;;;;;5050893;28;20975;-72
2023/05/04 02:37:45;;;;;;;5.33;3.80;;;8.90;99.90;;;;;;5045865;28;20436;-72
2023/05/04 02:40:30;;;;;;;4.10;3.37;;;8.80;99.80;;;;;;5047316;28;20478;-72
2023/05/04 02:43:16;;;;;;;10.47;4.50;;;8.80;99.90;;;;;;5053502;28;20626;-72
2023/05/04 02:46:03;;;;;;;6.27;3.53;;;8.70;99.90;;;;;;5050941;28;20434;-72
2023/05/04 02:48:48;;;;;;;4.93;3.67;;;8.50;99.90;;;;;;5038286;28;21102;-72
2023/05/04 02:51:33;;;;;;;5.80;3.63;;;8.60;99.90;;;;;;5051217;28;20421;-72
2023/05/04 02:54:19;;;;;;;4.60;3.70;;;8.60;99.90;;;;;;5049731;28;20500;-73
2023/05/04 02:57:05;;;;;;;8.00;3.40;;;8.60;99.90;;;;;;5054319;28;20448;-72
2023/05/04 02:59:51;;;;;;;4.50;4.10;;;8.50;99.90;;;;;;5041496;28;20537;-71
2023/05/04 03:02:38;;;;;;;7.03;4.00;;;8.50;99.90;;;;;;5048887;28;20490;-72
2023/05/04 03:05:24;;;;;;;4.40;3.63;;;8.60;99.90;;;;;;5052732;28;20438;-72
2023/05/04 03:08:09;;;;;;;8.60;4.27;;;8.60;99.90;;;;;;5046016;28;20522;-72
2023/05/04 03:10:54;;;;;;;5.57;3.93;;;8.40;99.90;;;;;;5051718;28;20489;-72
2023/05/04 03:13:40;;;;;;;7.80;4.47;;;8.40;99.90;;;;;;5047841;28;20515;-72
2023/05/04 03:16:25;;;;;;;4.97;3.33;;;8.40;99.90;;;;;;5047908;28;20443;-73
2023/05/04 03:19:12;;;;;;;6.93;3.77;;;8.40;99.90;;;;;;5047279;28;20486;-72
2023/05/04 03:21:58;;;;;;;5.83;3.93;;;8.30;99.90;;;;;;5044745;28;20469;-72
2023/05/04 03:24:44;;;;;;;4.50;3.50;;;8.30;99.90;;;;;;5048218;28;20492;-73
2023/05/04 03:27:29;;;;;;;5.70;3.80;;;8.40;99.90;;;;;;5050820;28;20490;-73
2023/05/04 03:30:15;;;;;;;6.57;4.70;;;8.40;99.90;;;;;;5046916;28;20973;-72
2023/05/04 03:33:01;;;;;;;5.93;3.63;;;8.30;99.90;;;;;;5048638;28;20424;-72
2023/05/04 03:35:47;;;;;;;10.20;5.33;;;8.40;99.90;;;;;;5049017;28;20582;-72
2023/05/04 03:38:33;;;;;;;7.43;5.10;;;8.40;99.90;;;;;;5044124;28;20425;-72
2023/05/04 03:41:18;;;;;;;6.73;4.00;;;8.30;99.90;;;;;;5052065;28;20444;-72
2023/05/04 03:44:04;;;;;;;6.57;4.67;;;8.30;99.90;;;;;;5053944;28;20429;-72
2023/05/04 03:46:49;;;;;;;4.93;4.03;;;8.20;99.90;;;;;;5051472;28;20457;-72
2023/05/04 03:49:35;;;;;;;6.00;4.93;;;8.00;99.90;;;;;;5054388;28;20542;-72
2023/05/04 03:52:22;;;;;;;5.63;4.60;;;8.00;99.90;;;;;;5049821;28;20966;-72
2023/05/04 03:55:09;;;;;;;8.20;5.03;;;8.00;99.90;;;;;;5052222;28;20564;-72
2023/05/04 03:57:54;;;;;;;5.20;4.10;;;8.00;99.90;;;;;;5051467;28;20461;-72
2023/05/04 04:00:40;;;;;;;6.67;4.87;;;7.90;99.90;;;;;;5051955;28;20449;-73
2023/05/04 04:03:25;;;;;;;6.90;4.70;;;8.10;99.90;;;;;;5055837;28;20464;-72
2023/05/04 04:06:12;;;;;;;4.90;4.20;;;8.20;99.90;;;;;;5054431;28;20523;-72
2023/05/04 04:08:58;;;;;;;10.53;4.33;;;8.30;99.90;;;;;;5045607;28;20521;-72
2023/05/04 04:11:44;;;;;;;5.50;4.13;;;8.30;99.90;;;;;;5050061;28;20416;-73
2023/05/04 04:14:29;;;;;;;6.43;4.73;;;8.30;99.90;;;;;;5059156;28;20422;-72
2023/05/04 04:17:15;;;;;;;7.10;4.93;;;8.40;99.90;;;;;;5052352;28;20532;-73
2023/05/04 04:20:00;;;;;;;8.10;4.50;;;8.40;99.90;;;;;;5051408;28;20650;-72
2023/05/04 04:22:46;;;;;;;6.60;4.53;;;8.40;99.90;;;;;;5058170;28;20457;-72
2023/05/04 04:25:33;;;;;;;7.40;5.10;;;8.40;99.90;;;;;;5045132;28;21029;-72
2023/05/04 04:28:18;;;;;;;6.50;4.73;;;8.50;99.90;;;;;;5046416;28;20479;-72
2023/05/04 04:31:04;;;;;;;5.27;4.10;;;8.60;99.90;;;;;;5047136;28;20809;-72
2023/05/04 04:33:50;;;;;;;5.57;5.03;;;8.70;99.90;;;;;;5048515;28;20509;-72
2023/05/04 04:36:35;;;;;;;8.47;5.13;;;8.60;99.90;;;;;;5046519;28;20588;-72
2023/05/04 04:39:21;;;;;;;6.40;5.63;;;8.70;99.90;;;;;;5052822;28;20459;-72
2023/05/04 04:42:07;;;;;;;8.17;5.37;;;8.60;99.90;;;;;;5047773;28;20458;-72
2023/05/04 04:44:53;;;;;;;4.80;4.10;;;8.70;99.90;;;;;;5053717;28;20971;-73
2023/05/04 04:47:38;;;;;;;7.87;5.50;;;8.70;99.90;;;;;;5040395;28;20500;-72
2023/05/04 04:50:24;;;;;;;5.30;4.50;;;8.70;99.90;;;;;;5045895;28;20811;-72
2023/05/04 04:53:09;;;;;;;7.77;6.37;;;8.60;99.90;;;;;;5049433;28;20550;-73
2023/05/04 04:55:55;;;;;;;13.20;6.77;;;8.70;99.90;;;;;;5053273;28;20428;-73
2023/05/04 04:58:42;;;;;;;5.57;4.63;;;8.80;99.90;;;;;;5052531;28;20954;-72
2023/05/04 05:01:28;;;;;;;7.90;4.70;;;8.90;99.90;;;;;;5047076;28;20443;-73
2023/05/04 05:04:14;;;;;;;15.50;5.50;;;9.10;99.90;;;;;;5050423;28;20443;-72
2023/05/04 05:06:59;;;;;;;7.77;5.30;;;9.30;99.90;;;;;;5047252;28;20434;-73
2023/05/04 05:09:45;;;;;;;10.07;5.10;;;9.40;99.90;;;;;;5053846;28;20504;-72
2023/05/04 05:12:30;;;;;;;7.37;4.93;;;9.60;99.90;;;;;;5051653;28;20422;-72
2023/05/04 05:15:17;;;;;;;5.83;4.53;;;9.80;99.90;;;;;;5049386;28;20497;-72
2023/05/04 05:18:02;;;;;;;8.33;4.90;;;9.90;99.90;;;;;;5049271;28;20964;-73
2023/05/04 05:20:48;;;;;;;6.80;5.00;;;9.90;99.90;;;;;;5050960;28;20499;-72
2023/05/04 05:23:34;;;;;;;5.93;4.60;;;10.10;99.90;;;;;;5050782;28;20426;-72
2023/05/04 05:26:19;;;;;;;7.60;5.70;;;10.20;99.90;;;;;;5053533;28;20504;-72
2023/05/04 05:29:05;;;;;;;14.80;5.73;;;10.30;99.90;;;;;;5050048;28;20580;-73
2023/05/04 05:31:52;;;;;;;5.47;4.57;;;10.40;99.90;;;;;;5055038;28;20440;-73
2023/05/04 05:34:38;;;;;;;7.80;4.70;;;10.60;99.90;;;;;;5046636;28;20413;-73
2023/05/04 05:37:24;;;;;;;6.93;6.00;;;10.70;99.90;;;;;;5045662;28;20420;-72
2023/05/04 05:40:10;;;;;;;8.53;5.57;;;10.70;99.90;;;;;;5052961;28;20476;-73
2023/05/04 05:42:55;;;;;;;6.63;4.83;;;10.80;99.90;;;;;;5058353;28;20425;-72
2023/05/04 05:45:41;;;;;;;4.90;4.40;;;10.90;99.90;;;;;;5041231;28;20976;-73
2023/05/04 05:48:27;;;;;;;8.80;5.40;;;11.00;99.90;;;;;;5052029;28;20445;-72
2023/05/04 05:51:13;;;;;;;5.77;4.50;;;11.00;99.90;;;;;;5050870;28;20824;-72
2023/05/04 05:53:58;;;;;;;8.93;5.17;;;11.10;99.90;;;;;;5052223;28;20529;-72
2023/05/04 05:56:44;;;;;;;10.73;6.70;;;11.10;99.90;;;;;;5047777;28;20440;-73
2023/05/04 05:59:29;;;;;;;8.33;5.73;;;11.10;99.90;;;;;;5050960;28;20470;-72
2023/05/04 06:02:15;;;;;;;9.33;5.07;;;11.10;99.90;;;;;;5047645;28;20438;-73
2023/05/04 06:05:02;;;;;;;9.87;6.50;;;11.20;99.90;;;;;;5056088;28;20439;-72
2023/05/04 06:07:47;;;;;;;9.00;7.60;;;11.20;99.90;;;;;;5048985;28;20811;-72
2023/05/04 06:10:33;;;;;;;8.40;5.50;;;11.40;99.90;;;;;;5052583;28;20456;-72
2023/05/04 06:13:19;;;;;;;7.40;5.30;;;11.60;99.90;;;;;;5051896;28;20451;-73
2023/05/04 06:16:04;;;;;;;6.90;5.63;;;11.60;99.90;;;;;;5038180;28;20447;-73
2023/05/04 06:18:50;;;;;;;10.03;5.83;;;11.80;99.90;;;;;;5049121;28;20566;-72
2023/05/04 06:21:37;;;;;;;7.10;5.10;;;12.00;99.90;;;;;;5048583;28;20433;-73
2023/05/04 06:24:23;;;;;;;7.40;4.80;;;12.20;99.90;;;;;;5048796;28;20960;-72
2023/05/04 06:27:09;;;;;;;7.73;4.90;;;12.20;99.90;;;;;;5045500;28;20429;-73
2023/05/04 06:29:54;;;;;;;8.50;5.50;;;12.10;99.90;;;;;;5047919;28;20503;-72
2023/05/04 06:32:39;;;;;;;7.37;5.23;;;12.10;99.90;;;;;;5049177;28;20463;-72
2023/05/04 06:35:25;;;;;;;5.70;4.20;;;12.30;99.90;;;;;;5048152;28;20768;-73
2023/05/04 06:38:12;;;;;;;6.90;5.20;;;12.60;98.20;;;;;;5050259;28;20549;-72
2023/05/04 06:40:57;;;;;;;6.57;4.53;;;12.80;94.40;;;;;;5053405;28;20442;-72
2023/05/04 06:43:43;;;;;;;6.70;4.70;;;13.00;89.50;;;;;;5052413;28;20406;-73
2023/05/04 06:46:29;;;;;;;5.83;3.87;;;13.10;84.40;;;;;;5044485;28;20814;-73
2023/05/04 06:49:16;;;;;;;5.43;4.40;;;13.30;84.60;;;;;;5045718;28;20539;-72
2023/05/04 06:52:01;;;;;;;6.60;4.87;;;13.60;80.70;;;;;;5056268;28;20416;-72
2023/05/04 06:54:48;;;;;;;6.97;5.20;;;13.80;78.90;;;;;;5044584;28;20443;-73
2023/05/04 06:57:34;;;;;;;9.00;5.67;;;14.00;77.60;;;;;;5048077;28;20452;-72
2023/05/04 07:00:20;;;;;;;6.13;5.30;;;14.20;73.70;;;;;;5047293;28;20938;-72
2023/05/04 07:03:05;;;;;;;6.93;4.70;;;14.20;72.90;;;;;;5055959;28;20792;-73
2023/05/04 07:05:51;;;;;;;7.73;5.53;;;14.30;71.40;;;;;;5049244;28;20507;-72
2023/05/04 07:08:37;;;;;;;7.27;5.63;;;14.40;70.00;;;;;;5054894;28;20462;-72
2023/05/04 07:11:23;;;;;;;7.40;5.30;;;14.40;70.70;;;;;;5059571;28;20433;-73
2023/05/04 07:14:10;;;;;;;6.10;5.00;;;14.50;71.40;;;;;;5055124;28;20474;-73
2023/05/04 07:16:55;;;;;;;10.23;5.93;;;14.60;70.50;;;;;;5049312;28;20482;-72
2023/05/04 07:19:41;;;;;;;11.07;5.50;;;14.70;71.10;;;;;;5052548;28;20513;-73
2023/05/04 07:22:26;;;;;;;7.37;5.20;;;14.80;70.40;;;;;;5044705;28;20513;-73
2023/05/04 07:25:11;;;;;;;8.80;5.97;;;14.80;68.90;;;;;;5041046;28;21074;-73
2023/05/04 07:27:58;;;;;;;8.00;6.03;;;14.90;70.40;;;;;;5055048;28;20440;-73
2023/05/04 07:30:44;;;;;;;14.10;5.67;;;15.00;71.50;;;;;;5045375;28;20834;-72
2023/05/04 07:33:30;;;;;;;8.97;5.47;;;15.20;70.70;;;;;;5043771;28;20452;-73
2023/05/04 07:36:15;;;;;;;13.00;5.83;;;15.40;71.60;;;;;;5049287;28;20441;-73
2023/05/04 07:39:01;;;;;;;8.17;6.60;;;15.40;67.10;;;;;;5052938;28;20518;-73
2023/05/04 07:41:46;;;;;;;8.20;6.83;;;15.50;70.90;;;;;;5047948;28;20429;-73
2023/05/04 07:44:33;;;;;;;7.43;6.03;;;15.70;70.70;;;;;;5048136;28;20452;-73
2023/05/04 07:47:19;;;;;;;10.03;6.83;;;15.80;68.40;;;;;;5052175;28;20466;-73
2023/05/04 07:50:05;;;;;;;7.57;6.43;;;15.90;65.70;;;;;;5049475;28;20555;-73
2023/05/04 07:52:51;;;;;;;9.00;6.57;;;15.90;65.40;;;;;;5046465;28;20448;-73
2023/05/04 07:55:36;;;;;;;9.70;6.10;;;15.90;66.20;;;;;;5045438;28;20453;-73
2023/05/04 07:58:22;;;;;;;7.60;6.37;;;15.90;62.90;;;;;;5046941;28;20522;-73
2023/05/04 08:01:09;;;;;;;11.90;5.50;;;16.10;63.90;;;;;;5043418;28;20437;-73
2023/05/04 08:03:54;;;;;;;8.33;6.33;;;16.20;65.10;;;;;;5047375;28;20553;-73
2023/05/04 08:06:40;;;;;;;8.73;6.80;;;16.20;63.10;;;;;;5048635;28;20802;-72
2023/05/04 08:09:25;;;;;;;9.40;6.40;;;16.30;63.10;;;;;;5044151;28;20455;-73
2023/05/04 08:12:11;;;;;;;8.10;6.73;;;16.40;60.20;;;;;;5047868;28;20440;-72
2023/05/04 08:14:57;;;;;;;7.03;6.33;;;16.50;62.10;;;;;;5044873;28;20457;-73
2023/05/04 08:17:44;;;;;;;13.60;6.10;;;16.60;62.50;;;;;;5048601;28;20476;-73
2023/05/04 08:20:29;;;;;;;7.70;6.13;;;16.70;63.50;;;;;;5046068;28;20457;-72
2023/05/04 08:23:15;;;;;;;7.83;6.00;;;16.90;64.70;;;;;;5049080;28;20429;-72
2023/05/04 08:26:02;;;;;;;8.37;6.07;;;17.10;60.90;;;;;;5047001;28;20528;-72
2023/05/04 08:28:47;;;;;;;7.93;5.50;;;17.10;61.70;;;;;;5044217;28;20483;-72
2023/05/04 08:31:33;;;;;;;8.97;6.27;;;17.20;62.60;;;;;;5045121;28;20441;-72
2023/05/04 08:34:20;;;;;;;6.40;5.37;;;17.40;64.30;;;;;;5044466;28;20523;-73
2023/05/04 08:37:05;;;;;;;6.73;5.43;;;17.50;55.70;;;;;;5041748;28;20517;-73
2023/05/04 08:39:51;;;;;;;8.00;4.80;;;17.70;52.40;;;;;;5049085;28;20439;-72
2023/05/04 08:42:36;;;;;;;6.23;5.60;;;17.80;54.10;;;;;;5050080;28;20289;-72
2023/05/04 08:45:22;;;;;;;9.50;4.80;;;17.90;52.20;;;;;;5045061;28;20460;-72
2023/05/04 08:48:08;;;;;;;6.50;5.07;;;18.10;51.80;;;;;;5046604;28;20444;-74
2023/05/04 08:50:57;;;;;;;6.83;5.10;;;18.20;45.60;;;;;;5036081;28;20528;-73
2023/05/04 08:53:45;;;;;;;10.80;5.20;;;18.30;46.50;;;;;;5035960;28;20508;-73
2023/05/04 08:56:31;;;;;;;10.73;5.77;;;18.40;47.20;;;;;;5057482;28;20451;-73
2023/05/04 08:59:20;;;;;;;5.23;4.67;;;18.60;47.00;;;;;;5058179;28;20445;-73
2023/05/04 09:02:05;;;;;;;6.33;4.80;;;18.60;43.10;;;;;;5052896;28;20557;-73
2023/05/04 09:04:52;;;;;;;7.70;4.70;;;18.80;44.80;;;;;;5045970;28;21046;-73
2023/05/04 09:07:38;;;;;;;5.87;4.70;;;18.90;38.20;;;;;;5047145;28;20450;-73
2023/05/04 09:10:24;;;;;;;6.97;4.30;;;18.90;41.60;;;;;;5057519;23;21024;-70
2023/05/04 09:13:10;;;;;;;5.93;3.70;;;19.00;43.90;;;;;;5047584;28;20447;-71
2023/05/04 09:15:56;;;;;;;5.87;4.27;;;19.00;39.70;;;;;;5049834;28;20443;-71
2023/05/04 09:18:43;;;;;;;7.27;4.43;;;19.20;38.70;;;;;;5051670;28;20453;-71
2023/05/04 09:21:29;;;;;;;6.93;3.90;;;19.30;39.70;;;;;;5054674;28;20442;-70
2023/05/04 09:24:26;;;;;;;7.63;4.40;;;19.40;39.70;;;;;;5049667;28;20895;-70
2023/05/04 09:27:12;;;;;;;6.03;4.27;;;19.60;39.30;;;;;;5044575;28;20450;-70
2023/05/04 09:29:58;;;;;;;5.00;3.90;;;19.70;36.60;;;;;;5040671;28;20475;-69
2023/05/04 09:32:47;;;;;;;5.17;3.90;;;19.80;33.20;;;;;;5044073;28;20503;-69
2023/05/04 09:35:32;;;;;;;4.23;3.50;;;19.90;35.00;;;;;;5045017;28;21014;-69
2023/05/04 09:38:25;;;;;;;4.80;4.30;;;19.90;33.80;;;;;;5042377;28;20447;-69
2023/05/04 09:41:12;;;;;;;4.00;3.03;;;19.90;29.50;;;;;;5037465;28;20464;-69
2023/05/04 09:43:58;;;;;;;6.13;3.70;;;20.10;31.10;;;;;;5039945;28;20449;-69
2023/05/04 09:46:52;;;;;;;5.60;3.03;;;20.10;35.30;;;;;;5035164;28;21451;-70
2023/05/04 09:49:38;;;;;;;5.20;3.60;;;20.20;29.50;;;;;;5041355;28;20474;-69
2023/05/04 09:52:25;;;;;;;5.20;3.60;;;20.20;30.20;;;;;;5038788;28;20537;-69
2023/05/04 09:55:13;;;;;;;6.03;3.43;;;20.20;27.50;;;;;;5034933;28;20443;-69
2023/05/04 09:58:00;;;;;;;7.87;3.20;;;20.30;28.90;;;;;;5038843;28;20451;-69
2023/05/04 10:00:46;;;;;;;6.77;4.33;;;20.50;28.50;;;;;;5041627;28;20462;-69
2023/05/04 10:03:32;;;;;;;4.50;3.47;;;20.60;29.40;;;;;;5039887;28;20443;-70
2023/05/04 10:06:18;;;;;;;4.93;3.57;;;20.70;28.40;;;;;;5039342;28;22103;-70
2023/05/04 10:09:04;;;;;;;5.67;3.27;;;20.70;27.00;;;;;;5034535;28;20443;-69
2023/05/04 10:11:49;;;;;;;4.83;3.40;;;20.80;27.90;;;;;;5035521;28;20518;-69
2023/05/04 10:14:36;;;;;;;4.87;3.53;;;20.90;27.20;;;;;;5033883;28;20839;-70
2023/05/04 10:17:32;;;;;;;4.23;2.90;;;20.90;26.30;;;;;;5042426;28;20450;-70
2023/05/04 10:20:46;;;;;;;4.87;2.80;;;20.90;28.10;;;;;;5032305;28;20988;-71
2023/05/04 10:24:26;;;;;;;3.53;3.10;;;21.00;25.20;;;;;;5036967;28;20459;-71
2023/05/04 10:27:14;;;;;;;4.67;3.63;;;21.10;24.80;;;;;;5022893;28;20832;-70
2023/05/04 10:30:01;;;;;;;5.37;3.50;;;21.30;27.50;;;;;;5040146;28;20497;-71
2023/05/04 10:32:54;;;;;;;4.40;2.73;;;21.30;25.30;;;;;;5039478;28;20962;-71
2023/05/04 10:35:50;;;;;;;5.83;2.87;;;21.40;25.70;;;;;;5048615;28;20443;-71
2023/05/04 10:38:37;;;;;;;4.90;3.50;;;21.30;26.20;;;;;;5050418;28;20422;-71
2023/05/04 10:41:23;;;;;;;4.80;2.80;;;21.40;25.20;;;;;;5059493;28;21107;-70
2023/05/04 10:44:08;;;;;;;5.03;3.47;;;21.40;22.00;;;;;;5052372;28;20431;-70
2023/05/04 10:47:00;;;;;;;4.30;3.60;;;21.50;23.20;;;;;;5042387;28;20450;-70
2023/05/04 10:49:45;;;;;;;4.53;2.90;;;21.60;24.50;;;;;;5055956;28;20467;-71
2023/05/04 10:52:31;;;;;;;5.57;3.33;;;21.60;22.70;;;;;;5046514;28;20451;-71
2023/05/04 10:55:17;;;;;;;6.30;3.07;;;21.80;23.40;;;;;;5057366;28;20436;-71
2023/05/04 10:58:03;;;;;;;3.40;2.57;;;21.80;23.40;;;;;;5049941;28;20562;-71
2023/05/04 11:00:50;;;;;;;4.40;2.87;;;21.60;19.80;;;;;;5059245;28;20448;-71
2023/05/04 11:03:40;;;;;;;4.13;2.50;;;21.60;19.70;;;;;;5058832;28;20458;-70
2023/05/04 11:06:26;;;;;;;6.00;3.47;;;21.60;23.60;;;;;;5058453;28;20516;-71
2023/05/04 11:09:12;;;;;;;4.33;3.90;;;21.70;21.40;;;;;;5054854;28;20434;-71
2023/05/04 11:11:57;;;;;;;3.43;2.67;;;21.90;22.60;;;;;;5047386;28;20780;-71
2023/05/04 11:14:43;;;;;;;3.87;2.53;;;22.00;21.00;;;;;;5048792;28;20468;-71
2023/05/04 11:17:28;;;;;;;4.27;3.00;;;22.10;19.10;;;;;;5053837;28;20437;-71
2023/05/04 11:20:23;;;;;;;4.10;3.20;;;22.20;21.00;;;;;;5059960;28;20448;-71
2023/05/04 11:23:09;;;;;;;6.23;3.27;;;22.30;23.50;;;;;;5042577;28;20581;-71
2023/05/04 11:25:55;;;;;;;5.40;2.70;;;22.40;23.80;;;;;;5052381;28;20453;-71
2023/05/04 11:28:41;;;;;;;7.67;3.47;;;22.60;22.80;;;;;;5052280;28;20786;-71
2023/05/04 11:31:26;;;;;;;5.00;2.97;;;22.60;22.60;;;;;;5045955;28;20480;-71
2023/05/04 11:34:19;;;;;;;4.40;2.77;;;22.70;24.30;;;;;;5039274;28;20441;-71
2023/05/04 11:37:07;;;;;;;5.53;2.90;;;22.80;22.40;;;;;;5053705;28;20521;-71
2023/05/04 11:39:52;;;;;;;5.33;2.90;;;23.00;22.90;;;;;;5042431;28;20456;-71
2023/05/04 11:42:39;;;;;;;8.20;3.50;;;23.10;20.30;;;;;;5042208;28;20573;-71
2023/05/04 11:45:27;;;;;;;5.83;3.13;;;23.20;22.20;;;;;;5044999;28;20451;-71
2023/05/04 11:48:13;;;;;;;4.00;3.30;;;23.40;21.60;;;;;;5031092;28;20910;-71
2023/05/04 11:50:59;;;;;;;4.60;2.97;;;23.40;20.30;;;;;;5039734;28;20499;-71
2023/05/04 11:53:45;;;;;;;3.90;2.70;;;23.50;19.40;;;;;;5037810;28;20436;-71
2023/05/04 11:56:40;;;;;;;6.40;3.00;;;23.60;18.80;;;;;;5034972;28;21060;-71
2023/05/04 11:59:25;;;;;;;6.20;3.17;;;23.60;18.50;;;;;;5038372;28;20816;-71
2023/05/04 12:02:15;;;;;;;5.30;2.97;;;23.70;18.00;;;;;;5043865;28;20521;-71
2023/05/04 12:05:00;;;;;;;3.80;3.17;;;23.70;19.80;;;;;;5047142;28;20487;-71
2023/05/04 12:07:46;;;;;;;9.57;3.23;;;23.80;18.10;;;;;;5038781;28;20439;-71
2023/05/04 12:10:33;;;;;;;5.17;3.50;;;23.80;18.70;;;;;;5038370;28;20597;-71
2023/05/04 12:13:19;;;;;;;4.00;2.60;;;23.90;18.70;;;;;;5051324;28;21179;-72
2023/05/04 12:16:12;;;;;;;4.87;3.13;;;24.00;19.00;;;;;;5050476;28;20440;-72
2023/05/04 12:19:03;;;;;;;3.30;2.57;;;24.10;19.20;;;;;;5048588;28;20530;-71
2023/05/04 12:21:50;;;;;;;4.63;3.47;;;24.20;19.50;;;;;;5045462;28;20599;-71
2023/05/04 12:24:35;;;;;;;4.60;2.90;;;24.30;19.50;;;;;;5045651;28;20599;-71
2023/05/04 12:27:22;;;;;;;3.30;2.73;;;24.40;18.30;;;;;;5044960;28;20442;-71
2023/05/04 12:30:09;;;;;;;6.53;2.90;;;24.30;17.10;;;;;;5040656;28;20610;-71
2023/05/04 12:32:55;;;;;;;5.90;3.10;;;24.30;16.90;;;;;;5042569;28;20449;-71
2023/05/04 12:35:40;;;;;;;4.67;3.13;;;24.40;18.50;;;;;;5044417;28;20523;-71
2023/05/04 12:38:29;;;;;;;5.10;3.50;;;24.30;17.40;;;;;;5043050;28;20448;-71
2023/05/04 12:41:14;;;;;;;4.20;2.87;;;24.30;16.70;;;;;;5045780;28;20483;-71
2023/05/04 12:44:01;;;;;;;12.17;4.03;;;24.40;17.10;;;;;;5040202;28;20758;-71
2023/05/04 12:46:47;;;;;;;4.43;3.20;;;24.50;16.00;;;;;;5036775;28;20813;-71
2023/05/04 12:49:32;;;;;;;4.00;2.70;;;24.60;18.80;;;;;;5035650;28;20449;-70
2023/05/04 12:52:18;;;;;;;17.43;2.97;;;24.70;16.00;;;;;;5046006;28;20470;-71
2023/05/04 12:55:04;;;;;;;8.27;3.33;;;24.80;16.40;;;;;;5044748;28;20440;-70
2023/05/04 12:57:49;;;;;;;6.13;3.40;;;24.90;17.50;;;;;;5042774;28;20452;-71
2023/05/04 13:00:37;;;;;;;9.60;3.73;;;24.90;16.40;;;;;;5042820;28;20455;-70
2023/05/04 13:03:22;;;;;;;3.40;3.03;;;25.00;15.60;;;;;;5041018;28;20852;-70
2023/05/04 13:06:08;;;;;;;5.90;3.37;;;25.10;16.90;;;;;;5042118;28;20882;-70
2023/05/04 13:08:53;;;;;;;4.80;3.27;;;25.00;15.00;;;;;;5043169;28;20448;-71
2023/05/04 13:11:39;;;;;;;7.50;3.70;;;25.20;16.70;;;;;;5043279;28;20515;-71
2023/05/04 13:14:24;;;;;;;8.03;3.50;;;25.30;15.20;;;;;;5048327;28;20436;-72
2023/05/04 13:17:11;;;;;;;4.30;3.37;;;25.20;14.60;;;;;;5050166;28;20534;-72
2023/05/04 13:19:56;;;;;;;5.00;3.37;;;25.20;17.10;;;;;;5043661;28;20612;-71
2023/05/04 13:22:45;;;;;;;4.07;3.07;;;25.40;15.60;;;;;;5040880;28;21006;-71
2023/05/04 13:25:30;;;;;;;5.00;3.30;;;25.60;17.60;;;;;;5043469;28;20456;-70
2023/05/04 13:28:15;;;;;;;7.63;3.33;;;25.20;13.50;;;;;;5044708;28;20468;-71
2023/05/04 13:31:01;;;;;;;4.00;3.10;;;25.30;15.40;;;;;;5030684;28;20491;-70
2023/05/04 13:33:49;;;;;;;5.40;3.10;;;25.50;16.70;;;;;;5041177;28;20453;-71
2023/05/04 13:36:34;;;;;;;4.60;2.87;;;25.70;15.50;;;;;;5039363;28;20443;-71
2023/05/04 13:39:22;;;;;;;5.70;3.53;;;25.80;16.70;;;;;;5038926;28;21071;-71
2023/05/04 13:42:08;;;;;;;6.37;3.27;;;25.90;15.70;;;;;;5039286;28;20469;-71
2023/05/04 13:44:53;;;;;;;6.33;3.10;;;25.90;15.70;;;;;;5046951;28;20441;-71
2023/05/04 13:47:39;;;;;;;5.23;3.17;;;25.90;15.60;;;;;;5038639;28;20443;-71
2023/05/04 13:50:26;;;;;;;3.77;2.83;;;25.80;15.40;;;;;;5035087;28;20517;-70
2023/05/04 13:53:11;;;;;;;3.67;2.70;;;25.90;15.40;;;;;;5039785;28;20444;-70
2023/05/04 13:55:57;;;;;;;4.10;2.83;;;26.00;14.70;;;;;;5044686;28;20572;-69
2023/05/04 13:58:43;;;;;;;5.43;3.20;;;26.10;16.90;;;;;;5036557;28;20435;-70
2023/05/04 14:01:28;;;;;;;3.67;3.27;;;26.20;14.90;;;;;;5039855;28;20472;-70
2023/05/04 14:04:13;;;;;;;4.20;3.27;;;26.30;15.90;;;;;;5042629;28;20449;-69
2023/05/04 14:07:00;;;;;;;6.23;2.93;;;26.30;12.80;;;;;;5043391;28;20478;-70
2023/05/04 14:09:46;;;;;;;5.43;2.80;;;26.30;13.90;;;;;;5036127;28;20473;-70
2023/05/04 14:12:31;;;;;;;4.80;3.60;;;26.40;13.20;;;;;;5037560;28;20487;-70
2023/05/04 14:15:21;;;;;;;7.37;3.30;;;26.40;13.50;;;;;;5036511;28;20529;-70
2023/05/04 14:18:06;;;;;;;6.43;3.37;;;26.40;15.90;;;;;;5039177;28;20975;-70
2023/05/04 14:20:51;;;;;;;3.80;2.43;;;26.30;14.10;;;;;;5037873;28;20479;-70
2023/05/04 14:23:39;;;;;;;4.80;3.03;;;26.30;14.00;;;;;;5037655;28;20497;-70
2023/05/04 14:26:24;;;;;;;4.20;3.10;;;26.20;12.90;;;;;;5043362;28;20452;-70
2023/05/04 14:29:09;;;;;;;6.07;3.00;;;26.20;14.50;;;;;;5039758;28;20571;-70
2023/05/04 14:31:55;;;;;;;5.00;3.13;;;26.20;13.10;;;;;;5036147;28;20476;-71